Portada
METAR-TAF:

METAR-TAF

Aeroports :

Alor Setar, Malàisia

latitud: 06-11-40N, longitud: 100-24-03E, altitud: 5 m

Observació

L'informe es va fer fa 1 hora i 9 minuts, a les 04:00 UTC
Vent 7 kt del Est/Nord-Est, variant entre Nord i Sud-Est
Temperatura 30°C
Humitat 70%
Pressió 1014 hPa
Visibilitat 10 km o més
Escasses núvols a una alçada de 2000 ft

METAR: WMKA 210400Z 06007KT 350V140 9999 FEW020 30/24 Q1014

Hora: 13:09 (05:09 UTC)

Pronòstic

L'informe es va fer fa 6 hores i 9 minuts, a les 23:00 UTC
Pronòstic vàlid del 21 a les 00 UTC al 22 a les 00 UTC
Vent 6 kt del Nord-Est
Visibilitat 10 km o més
Escasses núvols a una alçada de 2000 ft
Evolucionant progressivament
l' 21 a les 02 UTC al 21 a les 04 UTC
Vent 9 kt del Est/Nord-Est
Evolucionant progressivament
l' 21 a les 10 UTC al 21 a les 12 UTC
Vent 6 kt del Nord-Est
Visibilitat: 9000 m
Escasses núvols a una alçada de 3000 ft

TAF: WMKA 202300Z 2100/2200 05006KT 9999 FEW020 BECMG 2102/2104 06009KT BECMG 2110/2112 05006KT 9000 FEW030

Observacions i pronòstics meteorològics de més de 4000 aeroports (METAR i TAF).

Les estacions disponibles són els punts grocs i vermells al mapa.

Posi el ratolí al punt desitjat per veure el nom de l'estació.

Feu clic per veure les observacions i els pronòstics meteorològics.

Per canviar el mapa: feu clic els botons verds amb una creu de color negre per apropar; al botó verd amb un guió per allunyar la imatge; o en les fletxes verdes per a mapes adjacents.


METAR-TAF: